createdAt,value
2023-01-19T00:01:16.314Z,0.62
2023-01-19T00:06:25.962Z,0.66
2023-01-19T00:11:33.642Z,0.66
2023-01-19T00:16:41.379Z,0.55
2023-01-19T00:21:48.830Z,0.48
2023-01-19T00:26:56.195Z,0.41
2023-01-19T00:32:04.772Z,0.35
2023-01-19T00:37:13.750Z,0.34
2023-01-19T00:42:44.542Z,0.36
2023-01-19T00:47:57.432Z,0.46
2023-01-19T00:53:05.283Z,0.54
2023-01-19T00:58:12.781Z,0.58
2023-01-19T01:03:20.314Z,0.56
2023-01-19T01:08:28.394Z,0.53
2023-01-19T01:13:35.780Z,0.50
2023-01-19T01:18:43.615Z,0.42
2023-01-19T01:23:51.148Z,0.42
2023-01-19T01:29:01.107Z,0.45
2023-01-19T01:34:08.944Z,0.47
2023-01-19T01:39:14.742Z,0.46
2023-01-19T01:44:51.748Z,0.44
2023-01-19T01:50:04.898Z,0.43
2023-01-19T01:55:14.624Z,0.50
2023-01-19T02:00:22.885Z,0.59
2023-01-19T02:05:34.339Z,0.62
2023-01-19T02:11:00.107Z,0.57
2023-01-19T02:16:10.731Z,0.46
2023-01-19T02:21:24.236Z,0.33
2023-01-19T02:26:35.882Z,0.31
2023-01-19T02:31:45.582Z,0.36
2023-01-19T02:36:57.820Z,0.38
2023-01-19T02:42:09.772Z,0.44
2023-01-19T02:47:20.023Z,0.53
2023-01-19T02:52:29.385Z,0.51
2023-01-19T02:58:02.430Z,0.44
2023-01-19T03:03:24.745Z,0.36
2023-01-19T03:08:45.274Z,0.39
2023-01-19T03:13:56.151Z,0.55
2023-01-19T03:19:10.191Z,0.67
2023-01-19T03:24:20.347Z,0.72
2023-01-19T03:29:34.967Z,0.75
2023-01-19T03:34:44.984Z,0.73
2023-01-19T03:39:52.936Z,0.68
2023-01-19T03:45:04.910Z,0.63
2023-01-19T03:50:25.319Z,0.61
2023-01-19T03:55:33.119Z,0.67
2023-01-19T04:00:43.409Z,0.78
2023-01-19T04:05:51.670Z,0.82
2023-01-19T04:11:00.488Z,0.80
2023-01-19T04:16:08.986Z,0.75
2023-01-19T04:21:16.339Z,0.69
2023-01-19T04:26:24.995Z,0.64
2023-01-19T04:31:33.082Z,0.64
2023-01-19T04:36:41.007Z,0.72
2023-01-19T04:41:48.572Z,0.79
2023-01-19T04:46:56.177Z,0.82
2023-01-19T04:52:03.871Z,0.76
2023-01-19T04:57:11.471Z,0.61
2023-01-19T05:02:19.051Z,0.41
2023-01-19T05:07:26.472Z,0.30
2023-01-19T05:12:33.819Z,0.25
2023-01-19T05:17:41.255Z,0.24
2023-01-19T05:22:53.712Z,0.28
2023-01-19T05:28:00.923Z,0.30
2023-01-19T05:33:08.089Z,0.26
2023-01-19T05:38:17.040Z,0.19
2023-01-19T05:43:26.507Z,0.13
2023-01-19T05:48:33.834Z,0.02
2023-01-19T05:53:41.159Z,-0.10
2023-01-19T05:58:48.564Z,-0.15
2023-01-19T06:03:55.893Z,-0.05
2023-01-19T06:09:03.108Z,0.04
2023-01-19T06:14:10.661Z,0.05
2023-01-19T06:19:17.817Z,0.01
2023-01-19T06:24:25.429Z,-0.13
2023-01-19T06:29:33.030Z,-0.28
2023-01-19T06:34:43.988Z,-0.37
2023-01-19T06:39:51.449Z,-0.30
2023-01-19T06:44:59.910Z,-0.14
2023-01-19T06:50:07.930Z,-0.03
2023-01-19T06:55:16.372Z,0.02
2023-01-19T07:00:32.805Z,0.07
2023-01-19T07:05:50.619Z,0.17
2023-01-19T07:11:23.193Z,0.24
2023-01-19T07:16:37.181Z,0.31
2023-01-19T07:21:53.851Z,0.43
2023-01-19T07:27:01.072Z,0.56
2023-01-19T07:32:19.509Z,0.61
2023-01-19T07:37:28.307Z,0.63
2023-01-19T07:42:35.642Z,0.65
2023-01-19T07:47:43.908Z,0.61
2023-01-19T07:52:53.717Z,0.63
2023-01-19T07:58:00.923Z,0.73
2023-01-19T08:03:09.415Z,0.88
2023-01-19T08:08:16.787Z,1.02
2023-01-19T08:13:24.083Z,1.12
2023-01-19T08:18:31.293Z,1.15
2023-01-19T08:23:38.481Z,1.11
2023-01-19T08:28:45.623Z,1.04
2023-01-19T08:33:52.749Z,1.03
2023-01-19T08:38:59.893Z,1.08
2023-01-19T08:44:07.357Z,1.15
2023-01-19T08:49:14.667Z,1.21
2023-01-19T08:54:23.289Z,1.21
2023-01-19T08:59:30.418Z,1.19
2023-01-19T09:04:38.186Z,1.09
2023-01-19T09:09:45.375Z,1.05
2023-01-19T09:14:52.508Z,1.12
2023-01-19T09:19:59.672Z,1.23
2023-01-19T09:25:11.894Z,1.34
2023-01-19T09:30:20.240Z,1.35
2023-01-19T09:35:27.536Z,1.29
2023-01-19T09:40:35.211Z,1.22
2023-01-19T09:45:50.333Z,1.22
2023-01-19T09:51:00.696Z,1.19
2023-01-19T09:56:09.647Z,1.21
2023-01-19T10:01:35.276Z,1.29
2023-01-19T10:06:43.485Z,1.37
2023-01-19T10:11:57.941Z,1.38
2023-01-19T10:17:18.273Z,1.40
2023-01-19T10:22:28.084Z,1.42
2023-01-19T10:27:37.826Z,1.48
2023-01-19T10:32:45.746Z,1.63
2023-01-19T10:37:54.931Z,1.78
2023-01-19T10:43:02.587Z,1.88
2023-01-19T10:48:13.652Z,1.95
2023-01-19T10:53:25.936Z,1.99
2023-01-19T10:58:36.347Z,2.02
2023-01-19T11:03:43.748Z,2.08
2023-01-19T11:08:52.394Z,2.17
2023-01-19T11:14:14.229Z,2.13
2023-01-19T11:19:30.241Z,2.01
2023-01-19T11:24:40.311Z,1.78
2023-01-19T11:29:55.433Z,1.65
2023-01-19T11:35:02.768Z,1.56
2023-01-19T11:40:14.336Z,1.41
2023-01-19T11:45:22.833Z,1.31
2023-01-19T11:50:34.449Z,1.26
2023-01-19T11:55:48.994Z,1.23
2023-01-19T12:01:00.522Z,1.27
2023-01-19T12:06:12.192Z,1.39
2023-01-19T12:11:24.163Z,1.48
2023-01-19T12:16:34.106Z,1.56
2023-01-19T12:21:41.468Z,1.71
2023-01-19T12:26:54.453Z,1.71
2023-01-19T12:32:20.670Z,1.62
2023-01-19T12:37:42.037Z,1.51
2023-01-19T12:42:56.349Z,1.49
2023-01-19T12:48:05.367Z,1.58
2023-01-19T12:53:22.671Z,1.70
2023-01-19T12:58:32.034Z,1.82
2023-01-19T13:03:57.023Z,1.95
2023-01-19T13:09:04.450Z,2.03
2023-01-19T13:14:34.972Z,2.06
2023-01-19T13:20:12.705Z,2.09
2023-01-19T13:25:31.468Z,2.19
2023-01-19T13:30:46.218Z,2.31
2023-01-19T13:35:57.025Z,2.43
2023-01-19T13:41:07.739Z,2.47
2023-01-19T13:46:17.508Z,2.39
2023-01-19T13:51:24.882Z,2.32
2023-01-19T13:56:32.981Z,2.31
2023-01-19T14:01:40.218Z,2.35
2023-01-19T14:06:49.815Z,2.43
2023-01-19T14:12:16.378Z,2.52
2023-01-19T14:17:29.103Z,2.57
2023-01-19T14:22:45.520Z,2.58
2023-01-19T14:27:53.079Z,2.46
2023-01-19T14:33:00.219Z,2.20
2023-01-19T14:38:16.202Z,2.05
2023-01-19T14:43:27.582Z,2.05
2023-01-19T14:48:34.772Z,2.04
2023-01-19T14:53:48.043Z,2.13
2023-01-19T14:58:56.159Z,2.27
2023-01-19T15:04:01.798Z,2.36
2023-01-19T15:09:10.314Z,2.40
2023-01-19T15:14:18.891Z,2.30
2023-01-19T15:19:26.007Z,2.13
2023-01-19T15:24:33.211Z,1.97
2023-01-19T15:29:41.529Z,1.81
2023-01-19T15:34:48.718Z,1.79
2023-01-19T15:39:56.064Z,1.78
2023-01-19T15:45:19.488Z,1.77
2023-01-19T15:50:27.690Z,1.72
2023-01-19T15:55:35.028Z,1.63
2023-01-19T16:00:42.552Z,1.58
2023-01-19T16:05:50.020Z,1.61
2023-01-19T16:10:57.182Z,1.70
2023-01-19T16:16:08.826Z,1.75
2023-01-19T16:21:16.051Z,1.72
2023-01-19T16:26:35.068Z,1.62
2023-01-19T16:31:45.583Z,1.58
2023-01-19T16:36:52.808Z,1.58
2023-01-19T16:42:00.008Z,1.69
2023-01-19T16:47:07.473Z,1.83
2023-01-19T16:52:14.766Z,1.93
2023-01-19T16:57:21.901Z,1.97
2023-01-19T17:02:29.110Z,1.96
2023-01-19T17:07:36.555Z,1.92
2023-01-19T17:12:43.794Z,1.90
2023-01-19T17:17:50.944Z,1.90
2023-01-19T17:22:58.059Z,1.91
2023-01-19T17:28:05.352Z,1.90
2023-01-19T17:33:12.830Z,1.82
2023-01-19T17:38:20.061Z,1.79
2023-01-19T17:43:27.294Z,1.80
2023-01-19T17:48:34.476Z,1.79
2023-01-19T17:53:43.079Z,1.81
2023-01-19T17:58:50.937Z,1.84
2023-01-19T18:03:58.996Z,1.88
2023-01-19T18:09:07.641Z,1.88
2023-01-19T18:14:14.788Z,1.81
2023-01-19T18:19:23.083Z,1.73
2023-01-19T18:24:30.335Z,1.66
2023-01-19T18:29:37.489Z,1.61
2023-01-19T18:34:46.262Z,1.60
2023-01-19T18:39:59.930Z,1.58
2023-01-19T18:45:11.185Z,1.57
2023-01-19T18:50:18.870Z,1.51
2023-01-19T18:55:26.080Z,1.43
2023-01-19T19:00:33.256Z,1.34
2023-01-19T19:05:40.665Z,1.23
2023-01-19T19:10:48.134Z,1.17
2023-01-19T19:15:57.099Z,1.14
2023-01-19T19:21:06.749Z,1.15
2023-01-19T19:26:14.852Z,1.14
2023-01-19T19:31:21.744Z,1.10
2023-01-19T19:36:29.755Z,1.00
2023-01-19T19:41:37.437Z,0.89
2023-01-19T19:46:45.019Z,0.81
2023-01-19T19:51:52.148Z,0.81
2023-01-19T19:56:59.311Z,0.81
2023-01-19T20:02:06.577Z,0.81
2023-01-19T20:07:13.787Z,0.78
2023-01-19T20:12:20.901Z,0.74
2023-01-19T20:17:28.020Z,0.69
2023-01-19T20:22:35.593Z,0.65
2023-01-19T20:27:44.954Z,0.66
2023-01-19T20:32:52.533Z,0.71
2023-01-19T20:38:00.130Z,0.69
2023-01-19T20:43:08.240Z,0.64
2023-01-19T20:48:15.502Z,0.57
2023-01-19T20:53:22.684Z,0.48
2023-01-19T20:58:31.668Z,0.30
2023-01-19T21:03:38.871Z,0.12
2023-01-19T21:08:46.608Z,-0.01
2023-01-19T21:13:56.327Z,-0.15
2023-01-19T21:19:04.021Z,-0.27
2023-01-19T21:24:12.868Z,-0.33
2023-01-19T21:29:20.157Z,-0.37
2023-01-19T21:34:27.318Z,-0.40
2023-01-19T21:39:34.492Z,-0.52
2023-01-19T21:44:41.780Z,-0.63
2023-01-19T21:49:49.077Z,-0.72
2023-01-19T21:54:56.210Z,-0.72
2023-01-19T22:00:03.361Z,-0.69
2023-01-19T22:05:15.575Z,-0.66
2023-01-19T22:10:22.883Z,-0.64
2023-01-19T22:15:31.554Z,-0.65
2023-01-19T22:20:38.766Z,-0.70
2023-01-19T22:25:47.450Z,-0.75
2023-01-19T22:30:54.821Z,-0.76
2023-01-19T22:36:15.053Z,-0.74
2023-01-19T22:41:24.093Z,-0.72
2023-01-19T22:46:33.976Z,-0.74
2023-01-19T22:51:41.180Z,-0.76
2023-01-19T22:56:48.261Z,-0.80
2023-01-19T23:01:55.607Z,-0.86
2023-01-19T23:07:02.847Z,-0.94
2023-01-19T23:12:10.181Z,-0.99
2023-01-19T23:17:17.269Z,-0.94
2023-01-19T23:22:24.438Z,-0.83
2023-01-19T23:27:31.529Z,-0.74
2023-01-19T23:32:38.765Z,-0.68
2023-01-19T23:37:46.057Z,-0.68
2023-01-19T23:42:53.243Z,-0.70
2023-01-19T23:48:00.361Z,-0.76
2023-01-19T23:53:07.449Z,-0.84
2023-01-19T23:58:14.593Z,-0.87
